Blue Galaxy — SWDA — position and weather

sailwx.info

Track history (hours):
 
Tides and Currents Weather Stations Pressure Air Temp Water Temp Dewpoint Dewpoint Depression Visibility Wind Speed Wind Dir Waves Ship Positions

Blue Galaxy

Last reported at 2017-Apr-24 19:40 UTC. Time now 2017-Apr-25 18:30 UTC.
Position N 37°35' E 023°43'.

Length 192 m; draft 6.7 m.

Type: Passenger vessel. MMSI: 239672000.

Date/timePositionNaut miles runAvg speedWind from/ knotsBaromVisibWave heightAir tempDewpointWater temp
2017-Apr-24 19:40N 37°35' E 023°43'319.6
2017-Apr-24 19:30N 37°38' E 023°42'1019.4
2017-Apr-24 19:00N 37°47' E 023°37'917.1
2017-Apr-24 18:31N 37°56' E 023°37'1 2.4
2017-Apr-24 17:59N 37°57' E 023°38'0 0.0
2017-Apr-24 17:29N 37°57' E 023°38'0 0.0
2017-Apr-24 16:59N 37°57' E 023°38'0 0.0
2017-Apr-24 16:29N 37°57' E 023°38'0 0.0
2017-Apr-24 15:59N 37°57' E 023°38'0 0.0
2017-Apr-24 15:29N 37°57' E 023°38'0 0.0
2017-Apr-24 14:59N 37°57' E 023°38'0 0.0
2017-Apr-24 14:29N 37°57' E 023°38'0 0.0
2017-Apr-24 13:29N 37°57' E 023°38'0 0.0
2017-Apr-24 12:59N 37°57' E 023°38'0 0.0
2017-Apr-24 12:29N 37°57' E 023°38'0 0.0
2017-Apr-24 11:59N 37°57' E 023°38'0 0.0
2017-Apr-24 11:29N 37°57' E 023°38'0 0.0
2017-Apr-24 11:00N 37°57' E 023°38'0 0.0
2017-Apr-24 10:30N 37°57' E 023°38'0 0.0
2017-Apr-24 10:00N 37°57' E 023°38'0 0.0
2017-Apr-24 09:30N 37°57' E 023°38'0 0.0
2017-Apr-24 09:00N 37°57' E 023°38'0 0.0
2017-Apr-24 08:30N 37°57' E 023°38'0 0.0
2017-Apr-24 08:00N 37°57' E 023°38'0 0.0
2017-Apr-24 07:30N 37°57' E 023°38'0 0.0
2017-Apr-24 07:00N 37°57' E 023°38'0 0.0
2017-Apr-24 06:30N 37°57' E 023°38'0 0.0
2017-Apr-24 06:00N 37°57' E 023°38'0 0.0
2017-Apr-24 05:30N 37°57' E 023°38'0 0.0
2017-Apr-24 05:00N 37°57' E 023°38'0 0.0
2017-Apr-24 04:30N 37°57' E 023°38'0 0.0
2017-Apr-24 04:00N 37°57' E 023°38'0 0.0
2017-Apr-24 03:30N 37°57' E 023°38'0 0.0
2017-Apr-24 03:00N 37°57' E 023°38'1 1.6
2017-Apr-24 02:30N 37°56' E 023°37'816.8
2017-Apr-24 02:00N 37°48' E 023°41'1019.1
2017-Apr-24 01:30N 37°40' E 023°47'1019.4
2017-Apr-24 01:00N 37°30' E 023°49'1019.5
2017-Apr-24 00:30N 37°21' E 023°53'17 0.6
2017-Apr-22 19:25N 37°36' E 023°43'819.1
2017-Apr-22 19:00N 37°43' E 023°40'918.9
2017-Apr-22 18:30N 37°53' E 023°37'4 9.0
2017-Apr-22 18:00N 37°57' E 023°38'0 0.0
2017-Apr-22 17:30N 37°57' E 023°38'0 0.0
2017-Apr-22 17:00N 37°57' E 023°38'0 0.0
2017-Apr-22 16:30N 37°57' E 023°38'0 0.0
2017-Apr-22 16:00N 37°57' E 023°38'0 0.0
2017-Apr-22 15:30N 37°57' E 023°38'0 0.0
2017-Apr-22 15:00N 37°57' E 023°38'0 0.0
2017-Apr-22 14:30N 37°57' E 023°38'0 0.0
2017-Apr-22 13:30N 37°57' E 023°38'0 0.0
2017-Apr-22 13:00N 37°57' E 023°38'0 0.0
2017-Apr-22 12:30N 37°57' E 023°38'0 0.0
2017-Apr-22 12:00N 37°57' E 023°38'0 0.0
2017-Apr-22 11:30N 37°57' E 023°38'0 0.0
2017-Apr-22 11:00N 37°57' E 023°38'0 0.0
2017-Apr-22 10:30N 37°57' E 023°38'0 0.0
2017-Apr-22 10:00N 37°57' E 023°38'0 0.0
2017-Apr-22 09:30N 37°57' E 023°38'0 0.0
2017-Apr-22 09:00N 37°57' E 023°38'0 0.0
2017-Apr-22 08:30N 37°57' E 023°38'0 0.0
2017-Apr-22 08:00N 37°57' E 023°38'0 0.0
2017-Apr-22 07:30N 37°57' E 023°38'0 0.0
2017-Apr-22 07:00N 37°57' E 023°38'0 0.0
2017-Apr-22 06:28N 37°57' E 023°38'0 0.0
2017-Apr-22 05:58N 37°57' E 023°38'0 0.0
2017-Apr-22 05:28N 37°57' E 023°38'0 0.0
2017-Apr-22 04:59N 37°57' E 023°38'0 0.0
2017-Apr-22 04:28N 37°57' E 023°38'0 0.0
2017-Apr-22 03:55N 37°57' E 023°38'0 0.0
2017-Apr-22 03:28N 37°57' E 023°38'0 0.0
2017-Apr-22 03:00N 37°57' E 023°38'1 2.2
2017-Apr-22 02:31N 37°56' E 023°37'917.2
2017-Apr-22 02:01N 37°48' E 023°41'1019.1
2017-Apr-22 01:31N 37°40' E 023°46'1019.1
2017-Apr-22 01:00N 37°30' E 023°49'6 0.2
2017-Apr-20 19:50N 37°34' E 023°44'619.7
2017-Apr-20 19:31N 37°40' E 023°42'1019.5
2017-Apr-20 19:01N 37°49' E 023°37'714.4
2017-Apr-20 18:31N 37°57' E 023°38'0 0.5
2017-Apr-20 18:00N 37°57' E 023°38'0 0.0
2017-Apr-20 17:30N 37°57' E 023°38'0 0.0
2017-Apr-20 17:00N 37°57' E 023°38'0 0.0
2017-Apr-20 16:30N 37°57' E 023°38'0 0.0
2017-Apr-20 16:00N 37°57' E 023°38'0 0.0
2017-Apr-20 15:30N 37°57' E 023°38'0 0.0
2017-Apr-20 15:00N 37°57' E 023°38'0 0.0
2017-Apr-20 14:00N 37°57' E 023°38'0 0.0
2017-Apr-20 13:30N 37°57' E 023°38'0 0.0
2017-Apr-20 13:00N 37°57' E 023°38'0 0.0
2017-Apr-20 12:30N 37°57' E 023°38'0 0.0
2017-Apr-20 12:00N 37°57' E 023°38'0 0.0
2017-Apr-20 11:30N 37°57' E 023°38'0 0.0
2017-Apr-20 11:00N 37°57' E 023°38'0 0.0
2017-Apr-20 10:30N 37°57' E 023°38'0 0.0
2017-Apr-20 10:00N 37°57' E 023°38'0 0.0
2017-Apr-20 09:30N 37°57' E 023°38'0 0.0
2017-Apr-20 09:00N 37°57' E 023°38'0 0.0
2017-Apr-20 08:30N 37°57' E 023°38'0 0.0
2017-Apr-20 08:00N 37°57' E 023°38'0 0.0
2017-Apr-20 07:30N 37°57' E 023°38'0 0.0
2017-Apr-20 07:00N 37°57' E 023°38'0 0.0
2017-Apr-20 06:30N 37°57' E 023°38'0 0.0
2017-Apr-20 06:00N 37°57' E 023°38'0 0.0
2017-Apr-20 05:30N 37°57' E 023°38'0 0.0
2017-Apr-20 05:00N 37°57' E 023°38'0 0.0
2017-Apr-20 04:30N 37°57' E 023°38'0 0.0
2017-Apr-20 04:00N 37°57' E 023°38'0 0.0
2017-Apr-20 03:30N 37°57' E 023°38'0 0.0
2017-Apr-20 03:00N 37°57' E 023°38'2 3.6
2017-Apr-20 02:31N 37°56' E 023°37'1020.1
2017-Apr-20 02:01N 37°47' E 023°42'1019.9
2017-Apr-20 01:30N 37°38' E 023°47'1019.5
2017-Apr-20 01:00N 37°28' E 023°49'9 0.3
2017-Apr-18 20:21N 37°35' E 023°43'719.5
2017-Apr-18 20:00N 37°42' E 023°41'1019.3
2017-Apr-18 19:30N 37°51' E 023°37'611.7
2017-Apr-18 19:00N 37°57' E 023°38'0 0.0
2017-Apr-18 18:30N 37°57' E 023°38'0 0.0
2017-Apr-18 17:59N 37°57' E 023°38'0 0.0
2017-Apr-18 17:29N 37°57' E 023°38'0 0.0
2017-Apr-18 16:59N 37°57' E 023°38'0 0.0
2017-Apr-18 16:29N 37°57' E 023°38'0 0.0
2017-Apr-18 15:59N 37°57' E 023°38'0 0.0
2017-Apr-18 15:29N 37°57' E 023°38'0 0.0
2017-Apr-18 15:00N 37°57' E 023°38'1 2.4
2017-Apr-18 14:31N 37°56' E 023°37'2020.4
2017-Apr-18 13:31N 37°37' E 023°46'3 0.2
2017-Apr-17 19:32N 37°35' E 023°43'119.4
2017-Apr-17 19:30N 37°36' E 023°43'1019.7
2017-Apr-17 19:01N 37°45' E 023°39'1019.1
2017-Apr-17 18:31N 37°55' E 023°36'3 5.4
2017-Apr-17 18:00N 37°57' E 023°38'0 0.0
2017-Apr-17 17:28N 37°57' E 023°38'0 0.0
2017-Apr-17 16:58N 37°57' E 023°38'0 0.0
2017-Apr-17 16:22N 37°57' E 023°38'0 0.0
2017-Apr-17 15:59N 37°57' E 023°38'0 0.0
2017-Apr-17 15:29N 37°57' E 023°38'0 0.0
2017-Apr-17 14:59N 37°57' E 023°38'0 0.0
2017-Apr-17 13:59N 37°57' E 023°38'0 0.0
2017-Apr-17 13:29N 37°57' E 023°38'0 0.0
2017-Apr-17 12:56N 37°57' E 023°38'0 0.0
2017-Apr-17 12:29N 37°57' E 023°38'0 0.0
2017-Apr-17 11:56N 37°57' E 023°38'0 0.0
2017-Apr-17 11:30N 37°57' E 023°38'0 0.0
2017-Apr-17 10:59N 37°57' E 023°38'0 0.0
2017-Apr-17 10:29N 37°57' E 023°38'0 0.0
2017-Apr-17 09:59N 37°57' E 023°38'0 0.0
2017-Apr-17 09:29N 37°57' E 023°38'0 0.0
2017-Apr-17 08:59N 37°57' E 023°38'0 0.0
2017-Apr-17 08:29N 37°57' E 023°38'0 0.0
2017-Apr-17 07:59N 37°57' E 023°38'0 0.0
2017-Apr-17 07:29N 37°57' E 023°38'0 0.0
2017-Apr-17 06:59N 37°57' E 023°38'0 0.0
2017-Apr-17 06:29N 37°57' E 023°38'0 0.0
2017-Apr-17 05:59N 37°57' E 023°38'0 0.0
2017-Apr-17 05:26N 37°57' E 023°38'0 0.0
2017-Apr-17 04:59N 37°57' E 023°38'0 0.0
2017-Apr-17 04:29N 37°57' E 023°38'0 0.0
2017-Apr-17 03:59N 37°57' E 023°38'0 0.0
2017-Apr-17 03:26N 37°57' E 023°38'0 0.0
2017-Apr-17 02:59N 37°57' E 023°38'0 0.0
2017-Apr-17 02:29N 37°57' E 023°38'0 0.0
2017-Apr-17 01:56N 37°57' E 023°38'0 0.0
2017-Apr-17 01:26N 37°57' E 023°38'0 0.0
2017-Apr-17 00:59N 37°57' E 023°38'0 0.0
2017-Apr-17 00:29N 37°57' E 023°38'0 0.0
2017-Apr-16 23:56N 37°57' E 023°38'0 0.0
2017-Apr-16 23:29N 37°57' E 023°38'0 0.0
2017-Apr-16 22:59N 37°57' E 023°38'0 0.0
2017-Apr-16 22:26N 37°57' E 023°38'0 0.0
2017-Apr-16 21:59N 37°57' E 023°38'0 0.0
2017-Apr-16 21:29N 37°57' E 023°38'0 0.0
2017-Apr-16 20:59N 37°57' E 023°38'0 0.0
2017-Apr-16 20:29N 37°57' E 023°38'0 0.0
2017-Apr-16 19:59N 37°57' E 023°38'0 0.0
2017-Apr-16 18:47N 37°57' E 023°38'0 0.0
2017-Apr-16 18:23N 37°57' E 023°38'0 0.0
2017-Apr-16 17:23N 37°57' E 023°38'0 0.0
2017-Apr-16 15:47N 37°57' E 023°38'0 0.0
2017-Apr-16 14:41N 37°57' E 023°38'0 0.0
2017-Apr-16 13:59N 37°57' E 023°38'0 0.0
2017-Apr-16 13:29N 37°57' E 023°38'0 0.0
2017-Apr-16 12:59N 37°57' E 023°38'0 0.0
2017-Apr-16 12:29N 37°57' E 023°38'0 0.0
2017-Apr-16 11:59N 37°57' E 023°38'0 0.0
2017-Apr-16 11:29N 37°57' E 023°38'0 0.0
2017-Apr-16 10:59N 37°57' E 023°38'0 0.0
2017-Apr-16 10:29N 37°57' E 023°38'0 0.0
2017-Apr-16 09:59N 37°57' E 023°38'0 0.0
2017-Apr-16 09:29N 37°57' E 023°38'0 0.0
2017-Apr-16 08:59N 37°57' E 023°38'0 0.0
2017-Apr-16 08:26N 37°57' E 023°38'0 0.0
2017-Apr-16 07:59N 37°57' E 023°38'0 0.0
2017-Apr-16 07:29N 37°57' E 023°38'0 0.0
2017-Apr-16 06:59N 37°57' E 023°38'0 0.0
2017-Apr-16 06:29N 37°57' E 023°38'0 0.0
2017-Apr-16 05:59N 37°57' E 023°38'0 0.0
2017-Apr-16 05:29N 37°57' E 023°38'0 0.0
2017-Apr-16 04:59N 37°57' E 023°38'0 0.0
2017-Apr-16 04:29N 37°57' E 023°38'0 0.0
2017-Apr-16 03:59N 37°57' E 023°38'0 0.0
2017-Apr-16 03:29N 37°57' E 023°38'0 0.0
2017-Apr-16 02:59N 37°57' E 023°38'0 0.0
2017-Apr-16 02:29N 37°57' E 023°38'0 0.0
2017-Apr-16 01:59N 37°57' E 023°38'0 0.0
2017-Apr-16 01:29N 37°57' E 023°38'0 0.0
2017-Apr-16 00:59N 37°57' E 023°38'0 0.0
2017-Apr-16 00:29N 37°57' E 023°38'0 0.0
2017-Apr-15 23:58N 37°57' E 023°38'0 0.0
2017-Apr-15 23:28N 37°57' E 023°38'0 0.0
2017-Apr-15 22:58N 37°57' E 023°38'0 0.0
2017-Apr-15 22:28N 37°57' E 023°38'0 0.0
2017-Apr-15 21:58N 37°57' E 023°38'0 0.0
2017-Apr-15 21:28N 37°57' E 023°38'0 0.0
2017-Apr-15 20:58N 37°57' E 023°38'0 0.0
2017-Apr-15 20:28N 37°57' E 023°38'0 0.0
2017-Apr-15 19:58N 37°57' E 023°38'0 0.0
2017-Apr-15 19:25N 37°57' E 023°38'0 0.0
2017-Apr-15 18:58N 37°57' E 023°38'0 0.0
2017-Apr-15 18:28N 37°57' E 023°38'0 0.0
2017-Apr-15 17:58N 37°57' E 023°38'0 0.0
2017-Apr-15 17:28N 37°57' E 023°38'0 0.0
2017-Apr-15 16:58N 37°57' E 023°38'0 0.0
2017-Apr-15 16:28N 37°57' E 023°38'0 0.0
2017-Apr-15 15:55N 37°57' E 023°38'0 0.0
2017-Apr-15 15:25N 37°57' E 023°38'0 0.0
2017-Apr-15 14:58N 37°57' E 023°38'0 0.0
2017-Apr-15 14:28N 37°57' E 023°38'0 0.0
2017-Apr-15 13:28N 37°57' E 023°38'0 0.0
2017-Apr-15 12:58N 37°57' E 023°38'0 0.0
2017-Apr-15 12:28N 37°57' E 023°38'0 0.0
2017-Apr-15 11:58N 37°57' E 023°38'0 0.0
2017-Apr-15 11:25N 37°57' E 023°38'0 0.0
2017-Apr-15 10:58N 37°57' E 023°38'0 0.0
2017-Apr-15 10:28N 37°57' E 023°38'0 0.0
2017-Apr-15 09:58N 37°57' E 023°38'0 0.0
2017-Apr-15 09:28N 37°57' E 023°38'0 0.0
2017-Apr-15 08:58N 37°57' E 023°38'0 0.0
2017-Apr-15 08:28N 37°57' E 023°38'0 0.0
2017-Apr-15 07:58N 37°57' E 023°38'0 0.0
2017-Apr-15 07:28N 37°57' E 023°38'0 0.0
2017-Apr-15 06:58N 37°57' E 023°38'0 0.0
2017-Apr-15 06:28N 37°57' E 023°38'0 0.0
2017-Apr-15 05:58N 37°57' E 023°38'0 0.0
2017-Apr-15 05:28N 37°57' E 023°38'0 0.0
2017-Apr-15 04:58N 37°57' E 023°38'0 0.0
2017-Apr-15 04:28N 37°57' E 023°38'0 0.0
2017-Apr-15 03:58N 37°57' E 023°38'0 0.0
2017-Apr-15 03:28N 37°57' E 023°38'0 0.0
2017-Apr-15 02:58N 37°57' E 023°38'0 0.7
2017-Apr-15 02:31N 37°57' E 023°38'713.8
2017-Apr-15 02:01N 37°50' E 023°40'1019.7
2017-Apr-15 01:30N 37°41' E 023°46'1019.5
2017-Apr-15 00:58N 37°31' E 023°50'  
Track history (hours):
 
Tides and Currents Weather Stations Pressure Air Temp Water Temp Dewpoint Dewpoint Depression Visibility Wind Speed Wind Dir Waves Ship Positions

Blue Galaxy

Last reported at 2017-Apr-24 19:40 UTC. Time now 2017-Apr-25 18:30 UTC.
Position N 37°35' E 023°43'.

Length 192 m; draft 6.7 m.

Type: Passenger vessel. MMSI: 239672000.

Date/timePositionNaut miles runAvg speedWind from/ knotsBaromVisibWave heightAir tempDewpointWater temp
2017-Apr-24 19:40N 37°35' E 023°43'319.6
2017-Apr-24 19:30N 37°38' E 023°42'1019.4
2017-Apr-24 19:00N 37°47' E 023°37'917.1
2017-Apr-24 18:31N 37°56' E 023°37'1 2.4
2017-Apr-24 17:59N 37°57' E 023°38'0 0.0
2017-Apr-24 17:29N 37°57' E 023°38'0 0.0
2017-Apr-24 16:59N 37°57' E 023°38'0 0.0
2017-Apr-24 16:29N 37°57' E 023°38'0 0.0
2017-Apr-24 15:59N 37°57' E 023°38'0 0.0
2017-Apr-24 15:29N 37°57' E 023°38'0 0.0
2017-Apr-24 14:59N 37°57' E 023°38'0 0.0
2017-Apr-24 14:29N 37°57' E 023°38'0 0.0
2017-Apr-24 13:29N 37°57' E 023°38'0 0.0
2017-Apr-24 12:59N 37°57' E 023°38'0 0.0
2017-Apr-24 12:29N 37°57' E 023°38'0 0.0
2017-Apr-24 11:59N 37°57' E 023°38'0 0.0
2017-Apr-24 11:29N 37°57' E 023°38'0 0.0
2017-Apr-24 11:00N 37°57' E 023°38'0 0.0
2017-Apr-24 10:30N 37°57' E 023°38'0 0.0
2017-Apr-24 10:00N 37°57' E 023°38'0 0.0
2017-Apr-24 09:30N 37°57' E 023°38'0 0.0
2017-Apr-24 09:00N 37°57' E 023°38'0 0.0
2017-Apr-24 08:30N 37°57' E 023°38'0 0.0
2017-Apr-24 08:00N 37°57' E 023°38'0 0.0
2017-Apr-24 07:30N 37°57' E 023°38'0 0.0
2017-Apr-24 07:00N 37°57' E 023°38'0 0.0
2017-Apr-24 06:30N 37°57' E 023°38'0 0.0
2017-Apr-24 06:00N 37°57' E 023°38'0 0.0
2017-Apr-24 05:30N 37°57' E 023°38'0 0.0
2017-Apr-24 05:00N 37°57' E 023°38'0 0.0
2017-Apr-24 04:30N 37°57' E 023°38'0 0.0
2017-Apr-24 04:00N 37°57' E 023°38'0 0.0
2017-Apr-24 03:30N 37°57' E 023°38'0 0.0
2017-Apr-24 03:00N 37°57' E 023°38'1 1.6
2017-Apr-24 02:30N 37°56' E 023°37'816.8
2017-Apr-24 02:00N 37°48' E 023°41'1019.1
2017-Apr-24 01:30N 37°40' E 023°47'1019.4
2017-Apr-24 01:00N 37°30' E 023°49'1019.5
2017-Apr-24 00:30N 37°21' E 023°53'17 0.6
2017-Apr-22 19:25N 37°36' E 023°43'819.1
2017-Apr-22 19:00N 37°43' E 023°40'918.9
2017-Apr-22 18:30N 37°53' E 023°37'4 9.0
2017-Apr-22 18:00N 37°57' E 023°38'0 0.0
2017-Apr-22 17:30N 37°57' E 023°38'0 0.0
2017-Apr-22 17:00N 37°57' E 023°38'0 0.0
2017-Apr-22 16:30N 37°57' E 023°38'0 0.0
2017-Apr-22 16:00N 37°57' E 023°38'0 0.0
2017-Apr-22 15:30N 37°57' E 023°38'0 0.0
2017-Apr-22 15:00N 37°57' E 023°38'0 0.0
2017-Apr-22 14:30N 37°57' E 023°38'0 0.0
2017-Apr-22 13:30N 37°57' E 023°38'0 0.0
2017-Apr-22 13:00N 37°57' E 023°38'0 0.0
2017-Apr-22 12:30N 37°57' E 023°38'0 0.0
2017-Apr-22 12:00N 37°57' E 023°38'0 0.0
2017-Apr-22 11:30N 37°57' E 023°38'0 0.0
2017-Apr-22 11:00N 37°57' E 023°38'0 0.0
2017-Apr-22 10:30N 37°57' E 023°38'0 0.0
2017-Apr-22 10:00N 37°57' E 023°38'0 0.0
2017-Apr-22 09:30N 37°57' E 023°38'0 0.0
2017-Apr-22 09:00N 37°57' E 023°38'0 0.0
2017-Apr-22 08:30N 37°57' E 023°38'0 0.0
2017-Apr-22 08:00N 37°57' E 023°38'0 0.0
2017-Apr-22 07:30N 37°57' E 023°38'0 0.0
2017-Apr-22 07:00N 37°57' E 023°38'0 0.0
2017-Apr-22 06:28N 37°57' E 023°38'0 0.0
2017-Apr-22 05:58N 37°57' E 023°38'0 0.0
2017-Apr-22 05:28N 37°57' E 023°38'0 0.0
2017-Apr-22 04:59N 37°57' E 023°38'0 0.0
2017-Apr-22 04:28N 37°57' E 023°38'0 0.0
2017-Apr-22 03:55N 37°57' E 023°38'0 0.0
2017-Apr-22 03:28N 37°57' E 023°38'0 0.0
2017-Apr-22 03:00N 37°57' E 023°38'1 2.2
2017-Apr-22 02:31N 37°56' E 023°37'917.2
2017-Apr-22 02:01N 37°48' E 023°41'1019.1
2017-Apr-22 01:31N 37°40' E 023°46'1019.1
2017-Apr-22 01:00N 37°30' E 023°49'6 0.2
2017-Apr-20 19:50N 37°34' E 023°44'619.7
2017-Apr-20 19:31N 37°40' E 023°42'1019.5
2017-Apr-20 19:01N 37°49' E 023°37'714.4
2017-Apr-20 18:31N 37°57' E 023°38'0 0.5
2017-Apr-20 18:00N 37°57' E 023°38'0 0.0
2017-Apr-20 17:30N 37°57' E 023°38'0 0.0
2017-Apr-20 17:00N 37°57' E 023°38'0 0.0
2017-Apr-20 16:30N 37°57' E 023°38'0 0.0
2017-Apr-20 16:00N 37°57' E 023°38'0 0.0
2017-Apr-20 15:30N 37°57' E 023°38'0 0.0
2017-Apr-20 15:00N 37°57' E 023°38'0 0.0
2017-Apr-20 14:00N 37°57' E 023°38'0 0.0
2017-Apr-20 13:30N 37°57' E 023°38'0 0.0
2017-Apr-20 13:00N 37°57' E 023°38'0 0.0
2017-Apr-20 12:30N 37°57' E 023°38'0 0.0
2017-Apr-20 12:00N 37°57' E 023°38'0 0.0
2017-Apr-20 11:30N 37°57' E 023°38'0 0.0
2017-Apr-20 11:00N 37°57' E 023°38'0 0.0
2017-Apr-20 10:30N 37°57' E 023°38'0 0.0
2017-Apr-20 10:00N 37°57' E 023°38'0 0.0
2017-Apr-20 09:30N 37°57' E 023°38'0 0.0
2017-Apr-20 09:00N 37°57' E 023°38'0 0.0
2017-Apr-20 08:30N 37°57' E 023°38'0 0.0
2017-Apr-20 08:00N 37°57' E 023°38'0 0.0
2017-Apr-20 07:30N 37°57' E 023°38'0 0.0
2017-Apr-20 07:00N 37°57' E 023°38'0 0.0
2017-Apr-20 06:30N 37°57' E 023°38'0 0.0
2017-Apr-20 06:00N 37°57' E 023°38'0 0.0
2017-Apr-20 05:30N 37°57' E 023°38'0 0.0
2017-Apr-20 05:00N 37°57' E 023°38'0 0.0
2017-Apr-20 04:30N 37°57' E 023°38'0 0.0
2017-Apr-20 04:00N 37°57' E 023°38'0 0.0
2017-Apr-20 03:30N 37°57' E 023°38'0 0.0
2017-Apr-20 03:00N 37°57' E 023°38'2 3.6
2017-Apr-20 02:31N 37°56' E 023°37'1020.1
2017-Apr-20 02:01N 37°47' E 023°42'1019.9
2017-Apr-20 01:30N 37°38' E 023°47'1019.5
2017-Apr-20 01:00N 37°28' E 023°49'9 0.3
2017-Apr-18 20:21N 37°35' E 023°43'719.5
2017-Apr-18 20:00N 37°42' E 023°41'1019.3
2017-Apr-18 19:30N 37°51' E 023°37'611.7
2017-Apr-18 19:00N 37°57' E 023°38'0 0.0
2017-Apr-18 18:30N 37°57' E 023°38'0 0.0
2017-Apr-18 17:59N 37°57' E 023°38'0 0.0
2017-Apr-18 17:29N 37°57' E 023°38'0 0.0
2017-Apr-18 16:59N 37°57' E 023°38'0 0.0
2017-Apr-18 16:29N 37°57' E 023°38'0 0.0
2017-Apr-18 15:59N 37°57' E 023°38'0 0.0
2017-Apr-18 15:29N 37°57' E 023°38'0 0.0
2017-Apr-18 15:00N 37°57' E 023°38'1 2.4
2017-Apr-18 14:31N 37°56' E 023°37'2020.4
2017-Apr-18 13:31N 37°37' E 023°46'3 0.2
2017-Apr-17 19:32N 37°35' E 023°43'119.4
2017-Apr-17 19:30N 37°36' E 023°43'1019.7
2017-Apr-17 19:01N 37°45' E 023°39'1019.1
2017-Apr-17 18:31N 37°55' E 023°36'3 5.4
2017-Apr-17 18:00N 37°57' E 023°38'0 0.0
2017-Apr-17 17:28N 37°57' E 023°38'0 0.0
2017-Apr-17 16:58N 37°57' E 023°38'0 0.0
2017-Apr-17 16:22N 37°57' E 023°38'0 0.0
2017-Apr-17 15:59N 37°57' E 023°38'0 0.0
2017-Apr-17 15:29N 37°57' E 023°38'0 0.0
2017-Apr-17 14:59N 37°57' E 023°38'0 0.0
2017-Apr-17 13:59N 37°57' E 023°38'0 0.0
2017-Apr-17 13:29N 37°57' E 023°38'0 0.0
2017-Apr-17 12:56N 37°57' E 023°38'0 0.0
2017-Apr-17 12:29N 37°57' E 023°38'0 0.0
2017-Apr-17 11:56N 37°57' E 023°38'0 0.0
2017-Apr-17 11:30N 37°57' E 023°38'0 0.0
2017-Apr-17 10:59N 37°57' E 023°38'0 0.0
2017-Apr-17 10:29N 37°57' E 023°38'0 0.0
2017-Apr-17 09:59N 37°57' E 023°38'0 0.0
2017-Apr-17 09:29N 37°57' E 023°38'0 0.0
2017-Apr-17 08:59N 37°57' E 023°38'0 0.0
2017-Apr-17 08:29N 37°57' E 023°38'0 0.0
2017-Apr-17 07:59N 37°57' E 023°38'0 0.0
2017-Apr-17 07:29N 37°57' E 023°38'0 0.0
2017-Apr-17 06:59N 37°57' E 023°38'0 0.0
2017-Apr-17 06:29N 37°57' E 023°38'0 0.0
2017-Apr-17 05:59N 37°57' E 023°38'0 0.0
2017-Apr-17 05:26N 37°57' E 023°38'0 0.0
2017-Apr-17 04:59N 37°57' E 023°38'0 0.0
2017-Apr-17 04:29N 37°57' E 023°38'0 0.0
2017-Apr-17 03:59N 37°57' E 023°38'0 0.0
2017-Apr-17 03:26N 37°57' E 023°38'0 0.0
2017-Apr-17 02:59N 37°57' E 023°38'0 0.0
2017-Apr-17 02:29N 37°57' E 023°38'0 0.0
2017-Apr-17 01:56N 37°57' E 023°38'0 0.0
2017-Apr-17 01:26N 37°57' E 023°38'0 0.0
2017-Apr-17 00:59N 37°57' E 023°38'0 0.0
2017-Apr-17 00:29N 37°57' E 023°38'0 0.0
2017-Apr-16 23:56N 37°57' E 023°38'0 0.0
2017-Apr-16 23:29N 37°57' E 023°38'0 0.0
2017-Apr-16 22:59N 37°57' E 023°38'0 0.0
2017-Apr-16 22:26N 37°57' E 023°38'0 0.0
2017-Apr-16 21:59N 37°57' E 023°38'0 0.0
2017-Apr-16 21:29N 37°57' E 023°38'0 0.0
2017-Apr-16 20:59N 37°57' E 023°38'0 0.0
2017-Apr-16 20:29N 37°57' E 023°38'0 0.0
2017-Apr-16 19:59N 37°57' E 023°38'0 0.0
2017-Apr-16 18:47N 37°57' E 023°38'0 0.0
2017-Apr-16 18:23N 37°57' E 023°38'0 0.0
2017-Apr-16 17:23N 37°57' E 023°38'0 0.0
2017-Apr-16 15:47N 37°57' E 023°38'0 0.0
2017-Apr-16 14:41N 37°57' E 023°38'0 0.0
2017-Apr-16 13:59N 37°57' E 023°38'0 0.0
2017-Apr-16 13:29N 37°57' E 023°38'0 0.0
2017-Apr-16 12:59N 37°57' E 023°38'0 0.0
2017-Apr-16 12:29N 37°57' E 023°38'0 0.0
2017-Apr-16 11:59N 37°57' E 023°38'0 0.0
2017-Apr-16 11:29N 37°57' E 023°38'0 0.0
2017-Apr-16 10:59N 37°57' E 023°38'0 0.0
2017-Apr-16 10:29N 37°57' E 023°38'0 0.0
2017-Apr-16 09:59N 37°57' E 023°38'0 0.0
2017-Apr-16 09:29N 37°57' E 023°38'0 0.0
2017-Apr-16 08:59N 37°57' E 023°38'0 0.0
2017-Apr-16 08:26N 37°57' E 023°38'0 0.0
2017-Apr-16 07:59N 37°57' E 023°38'0 0.0
2017-Apr-16 07:29N 37°57' E 023°38'0 0.0
2017-Apr-16 06:59N 37°57' E 023°38'0 0.0
2017-Apr-16 06:29N 37°57' E 023°38'0 0.0
2017-Apr-16 05:59N 37°57' E 023°38'0 0.0
2017-Apr-16 05:29N 37°57' E 023°38'0 0.0
2017-Apr-16 04:59N 37°57' E 023°38'0 0.0
2017-Apr-16 04:29N 37°57' E 023°38'0 0.0
2017-Apr-16 03:59N 37°57' E 023°38'0 0.0
2017-Apr-16 03:29N 37°57' E 023°38'0 0.0
2017-Apr-16 02:59N 37°57' E 023°38'0 0.0
2017-Apr-16 02:29N 37°57' E 023°38'0 0.0
2017-Apr-16 01:59N 37°57' E 023°38'0 0.0
2017-Apr-16 01:29N 37°57' E 023°38'0 0.0
2017-Apr-16 00:59N 37°57' E 023°38'0 0.0
2017-Apr-16 00:29N 37°57' E 023°38'0 0.0
2017-Apr-15 23:58N 37°57' E 023°38'0 0.0
2017-Apr-15 23:28N 37°57' E 023°38'0 0.0
2017-Apr-15 22:58N 37°57' E 023°38'0 0.0
2017-Apr-15 22:28N 37°57' E 023°38'0 0.0
2017-Apr-15 21:58N 37°57' E 023°38'0 0.0
2017-Apr-15 21:28N 37°57' E 023°38'0 0.0
2017-Apr-15 20:58N 37°57' E 023°38'0 0.0
2017-Apr-15 20:28N 37°57' E 023°38'0 0.0
2017-Apr-15 19:58N 37°57' E 023°38'0 0.0
2017-Apr-15 19:25N 37°57' E 023°38'0 0.0
2017-Apr-15 18:58N 37°57' E 023°38'0 0.0
2017-Apr-15 18:28N 37°57' E 023°38'0 0.0
2017-Apr-15 17:58N 37°57' E 023°38'0 0.0
2017-Apr-15 17:28N 37°57' E 023°38'0 0.0
2017-Apr-15 16:58N 37°57' E 023°38'0 0.0
2017-Apr-15 16:28N 37°57' E 023°38'0 0.0
2017-Apr-15 15:55N 37°57' E 023°38'0 0.0
2017-Apr-15 15:25N 37°57' E 023°38'0 0.0
2017-Apr-15 14:58N 37°57' E 023°38'0 0.0
2017-Apr-15 14:28N 37°57' E 023°38'0 0.0
2017-Apr-15 13:28N 37°57' E 023°38'0 0.0
2017-Apr-15 12:58N 37°57' E 023°38'0 0.0
2017-Apr-15 12:28N 37°57' E 023°38'0 0.0
2017-Apr-15 11:58N 37°57' E 023°38'0 0.0
2017-Apr-15 11:25N 37°57' E 023°38'0 0.0
2017-Apr-15 10:58N 37°57' E 023°38'0 0.0
2017-Apr-15 10:28N 37°57' E 023°38'0 0.0
2017-Apr-15 09:58N 37°57' E 023°38'0 0.0
2017-Apr-15 09:28N 37°57' E 023°38'0 0.0
2017-Apr-15 08:58N 37°57' E 023°38'0 0.0
2017-Apr-15 08:28N 37°57' E 023°38'0 0.0
2017-Apr-15 07:58N 37°57' E 023°38'0 0.0
2017-Apr-15 07:28N 37°57' E 023°38'0 0.0
2017-Apr-15 06:58N 37°57' E 023°38'0 0.0
2017-Apr-15 06:28N 37°57' E 023°38'0 0.0
2017-Apr-15 05:58N 37°57' E 023°38'0 0.0
2017-Apr-15 05:28N 37°57' E 023°38'0 0.0
2017-Apr-15 04:58N 37°57' E 023°38'0 0.0
2017-Apr-15 04:28N 37°57' E 023°38'0 0.0
2017-Apr-15 03:58N 37°57' E 023°38'0 0.0
2017-Apr-15 03:28N 37°57' E 023°38'0 0.0
2017-Apr-15 02:58N 37°57' E 023°38'0 0.7
2017-Apr-15 02:31N 37°57' E 023°38'713.8
2017-Apr-15 02:01N 37°50' E 023°40'1019.7
2017-Apr-15 01:30N 37°41' E 023°46'1019.5
2017-Apr-15 00:58N 37°31' E 023°50'  

Dump ship's entire track history